createdAt,value
2023-04-21T00:00:36.858Z,623.07
2023-04-21T00:01:36.847Z,623.06
2023-04-21T00:02:36.930Z,623.08
2023-04-21T00:03:37.073Z,623.11
2023-04-21T00:04:36.984Z,623.09
2023-04-21T00:05:36.989Z,623.12
2023-04-21T00:06:36.795Z,623.08
2023-04-21T00:07:36.796Z,623.09
2023-04-21T00:08:36.771Z,623.10
2023-04-21T00:09:36.760Z,623.13
2023-04-21T00:10:36.793Z,623.57
2023-04-21T00:11:36.755Z,623.74
2023-04-21T00:12:36.735Z,623.78
2023-04-21T00:13:36.746Z,624.20
2023-04-21T00:14:36.707Z,624.11
2023-04-21T00:15:36.748Z,623.63
2023-04-21T00:16:36.755Z,624.00
2023-04-21T00:17:36.728Z,624.73
2023-04-21T00:18:36.695Z,624.66
2023-04-21T00:19:36.653Z,623.91
2023-04-21T00:20:36.643Z,623.63
2023-04-21T00:21:36.633Z,624.29
2023-04-21T00:22:36.643Z,624.83
2023-04-21T00:23:36.614Z,624.72
2023-04-21T00:24:36.601Z,624.50
2023-04-21T00:25:36.588Z,624.12
2023-04-21T00:26:36.594Z,624.31
2023-04-21T00:27:36.574Z,625.40
2023-04-21T00:28:36.568Z,627.06
2023-04-21T00:29:36.546Z,629.26
2023-04-21T00:30:36.533Z,630.30
2023-04-21T00:31:36.573Z,629.41
2023-04-21T00:32:36.570Z,628.87
2023-04-21T00:33:36.500Z,629.52
2023-04-21T00:34:37.073Z,629.37
2023-04-21T00:35:36.488Z,630.40
2023-04-21T00:36:36.477Z,631.02
2023-04-21T00:37:36.481Z,631.36
2023-04-21T00:38:36.469Z,630.07
2023-04-21T00:39:36.433Z,628.71
2023-04-21T00:40:36.428Z,629.55
2023-04-21T00:41:36.414Z,630.01
2023-04-21T00:42:43.925Z,630.28
2023-04-21T00:43:36.409Z,629.14
2023-04-21T00:44:36.381Z,627.06
2023-04-21T00:45:36.375Z,628.12
2023-04-21T00:46:36.374Z,627.37
2023-04-21T00:47:36.461Z,625.46
2023-04-21T00:48:36.352Z,625.16
2023-04-21T00:49:36.328Z,623.95
2023-04-21T00:50:36.341Z,624.43
2023-04-21T00:51:36.312Z,625.35
2023-04-21T00:52:36.332Z,626.44
2023-04-21T00:53:36.285Z,627.05
2023-04-21T00:54:36.288Z,626.88
2023-04-21T00:55:36.270Z,626.66
2023-04-21T00:56:36.253Z,626.83
2023-04-21T00:57:36.254Z,626.56
2023-04-21T00:58:36.232Z,626.93
2023-04-21T00:59:36.237Z,626.74
2023-04-21T01:00:36.238Z,626.49
2023-04-21T01:01:36.197Z,626.46
2023-04-21T01:02:36.368Z,626.77
2023-04-21T01:03:36.391Z,627.44
2023-04-21T01:04:36.183Z,628.11
2023-04-21T01:05:36.157Z,628.30
2023-04-21T01:06:36.169Z,629.46
2023-04-21T01:07:36.144Z,630.37
2023-04-21T01:08:36.146Z,630.54
2023-04-21T01:09:36.116Z,630.21
2023-04-21T01:10:36.115Z,629.86
2023-04-21T01:11:36.093Z,629.88
2023-04-21T01:12:36.094Z,628.59
2023-04-21T01:13:36.101Z,628.87
2023-04-21T01:14:36.064Z,628.16
2023-04-21T01:15:36.049Z,628.60
2023-04-21T01:16:36.116Z,629.60
2023-04-21T01:17:36.057Z,630.02
2023-04-21T01:18:36.032Z,629.94
2023-04-21T01:19:36.009Z,629.62
2023-04-21T01:20:36.003Z,630.60
2023-04-21T01:21:35.984Z,630.75
2023-04-21T01:22:36.011Z,631.76
2023-04-21T01:23:35.982Z,631.50
2023-04-21T01:24:35.954Z,633.72
2023-04-21T01:25:35.947Z,635.32
2023-04-21T01:26:35.942Z,635.60
2023-04-21T01:27:35.919Z,636.66
2023-04-21T01:28:35.921Z,637.16
2023-04-21T01:29:35.901Z,636.61
2023-04-21T01:30:35.913Z,636.63
2023-04-21T01:31:35.946Z,636.01
2023-04-21T01:32:35.899Z,637.77
2023-04-21T01:33:35.869Z,637.17
2023-04-21T01:34:35.843Z,634.46
2023-04-21T01:35:35.835Z,634.63
2023-04-21T01:36:35.823Z,638.59
2023-04-21T01:37:35.816Z,639.41
2023-04-21T01:38:35.845Z,641.21
2023-04-21T01:39:35.808Z,640.81
2023-04-21T01:40:35.780Z,639.76
2023-04-21T01:41:35.773Z,640.63
2023-04-21T01:42:35.775Z,640.65
2023-04-21T01:43:35.761Z,641.58
2023-04-21T01:44:35.738Z,642.33
2023-04-21T01:45:35.768Z,642.88
2023-04-21T01:46:35.866Z,643.55
2023-04-21T01:47:35.760Z,645.00
2023-04-21T01:48:35.707Z,647.43
2023-04-21T01:49:35.687Z,646.41
2023-04-21T01:50:35.685Z,644.96
2023-04-21T01:51:35.681Z,645.09
2023-04-21T01:52:35.655Z,644.23
2023-04-21T01:53:35.665Z,643.27
2023-04-21T01:54:35.660Z,646.10
2023-04-21T01:55:35.647Z,645.85
2023-04-21T01:56:35.678Z,642.82
2023-04-21T01:57:35.614Z,641.99
2023-04-21T01:58:35.601Z,639.55
2023-04-21T01:59:35.606Z,638.12
2023-04-21T02:00:35.610Z,640.14
2023-04-21T02:01:35.613Z,641.22
2023-04-21T02:02:35.660Z,644.23
2023-04-21T02:03:35.621Z,642.26
2023-04-21T02:04:35.765Z,643.19
2023-04-21T02:05:35.571Z,645.58
2023-04-21T02:06:35.511Z,647.72
2023-04-21T02:07:35.493Z,647.74
2023-04-21T02:08:35.481Z,650.61
2023-04-21T02:09:35.482Z,650.96
2023-04-21T02:10:35.498Z,653.92
2023-04-21T02:11:35.458Z,656.23
2023-04-21T02:12:35.441Z,657.04
2023-04-21T02:13:35.430Z,659.44
2023-04-21T02:14:35.412Z,663.04
2023-04-21T02:15:35.474Z,663.71
2023-04-21T02:16:35.429Z,665.66
2023-04-21T02:17:35.435Z,665.62
2023-04-21T02:18:35.368Z,667.91
2023-04-21T02:19:35.358Z,668.66
2023-04-21T02:20:35.389Z,669.24
2023-04-21T02:21:35.353Z,669.22
2023-04-21T02:22:35.324Z,670.06
2023-04-21T02:23:35.324Z,671.05
2023-04-21T02:24:35.302Z,669.34
2023-04-21T02:25:35.310Z,668.98
2023-04-21T02:26:35.309Z,670.67
2023-04-21T02:27:35.281Z,669.78
2023-04-21T02:28:35.258Z,670.24
2023-04-21T02:29:35.252Z,672.15
2023-04-21T02:30:35.253Z,666.58
2023-04-21T02:31:46.100Z,664.37
2023-04-21T02:32:35.352Z,664.93
2023-04-21T02:33:35.216Z,665.37
2023-04-21T02:34:35.201Z,660.23
2023-04-21T02:35:35.185Z,659.61
2023-04-21T02:36:35.184Z,655.08
2023-04-21T02:37:35.173Z,655.74
2023-04-21T02:38:35.156Z,656.99
2023-04-21T02:39:35.142Z,657.20
2023-04-21T02:40:35.132Z,656.64
2023-04-21T02:41:35.137Z,657.95
2023-04-21T02:42:35.134Z,655.98
2023-04-21T02:43:42.614Z,657.70
2023-04-21T02:44:35.085Z,664.88
2023-04-21T02:45:35.086Z,662.84
2023-04-21T02:46:35.086Z,660.84
2023-04-21T02:47:35.141Z,661.81
2023-04-21T02:48:35.041Z,659.25
2023-04-21T02:49:35.034Z,656.57
2023-04-21T02:50:35.020Z,656.64
2023-04-21T02:51:35.016Z,657.02
2023-04-21T02:52:35.007Z,656.38
2023-04-21T02:53:34.990Z,656.83
2023-04-21T02:54:34.976Z,658.75
2023-04-21T02:55:34.971Z,660.92
2023-04-21T02:56:34.950Z,663.80
2023-04-21T02:57:34.965Z,663.86
2023-04-21T02:58:34.962Z,664.86
2023-04-21T02:59:34.929Z,666.82
2023-04-21T03:00:34.973Z,666.66
2023-04-21T03:01:34.900Z,665.46
2023-04-21T03:02:35.146Z,664.41
2023-04-21T03:03:34.992Z,663.46
2023-04-21T03:04:35.005Z,664.32
2023-04-21T03:05:34.855Z,664.65
2023-04-21T03:06:34.846Z,663.29
2023-04-21T03:07:34.837Z,664.20
2023-04-21T03:08:34.843Z,665.54
2023-04-21T03:09:34.905Z,665.07
2023-04-21T03:10:34.800Z,664.98
2023-04-21T03:11:34.795Z,665.93
2023-04-21T03:12:34.792Z,665.55
2023-04-21T03:13:34.768Z,666.47
2023-04-21T03:14:34.790Z,667.51
2023-04-21T03:15:34.748Z,669.22
2023-04-21T03:16:34.773Z,668.91
2023-04-21T03:17:34.732Z,668.93
2023-04-21T03:18:34.725Z,668.46
2023-04-21T03:19:34.701Z,668.60
2023-04-21T03:20:34.687Z,668.99
2023-04-21T03:21:34.694Z,669.95
2023-04-21T03:22:34.665Z,669.94
2023-04-21T03:23:34.673Z,669.76
2023-04-21T03:24:34.644Z,666.87
2023-04-21T03:25:34.652Z,667.06
2023-04-21T03:26:34.621Z,667.46
2023-04-21T03:27:34.619Z,667.42
2023-04-21T03:28:34.599Z,668.57
2023-04-21T03:29:34.594Z,667.94
2023-04-21T03:30:34.610Z,669.05
2023-04-21T03:31:34.611Z,669.43
2023-04-21T03:32:34.590Z,669.14
2023-04-21T03:33:34.553Z,670.57
2023-04-21T03:34:34.539Z,671.81
2023-04-21T03:35:34.534Z,669.34
2023-04-21T03:36:34.524Z,668.51
2023-04-21T03:37:34.504Z,668.32
2023-04-21T03:38:34.491Z,668.38
2023-04-21T03:39:34.494Z,665.42
2023-04-21T03:40:34.467Z,665.31
2023-04-21T03:41:34.474Z,665.65
2023-04-21T03:42:34.453Z,663.92
2023-04-21T03:43:34.463Z,662.70
2023-04-21T03:44:34.448Z,661.47
2023-04-21T03:45:34.474Z,663.54
2023-04-21T03:46:34.518Z,665.14
2023-04-21T03:47:34.433Z,666.02
2023-04-21T03:48:34.394Z,668.77
2023-04-21T03:49:34.385Z,669.50
2023-04-21T03:50:34.359Z,672.86
2023-04-21T03:51:34.363Z,669.96
2023-04-21T03:52:34.340Z,669.53
2023-04-21T03:53:34.329Z,669.50
2023-04-21T03:54:34.333Z,667.46
2023-04-21T03:55:34.319Z,668.36
2023-04-21T03:56:34.294Z,668.28
2023-04-21T03:57:34.300Z,669.52
2023-04-21T03:58:34.272Z,669.75
2023-04-21T03:59:34.278Z,668.85
2023-04-21T04:00:34.259Z,668.70
2023-04-21T04:01:34.248Z,668.67
2023-04-21T04:02:34.378Z,668.83
2023-04-21T04:03:34.468Z,669.17
2023-04-21T04:04:34.368Z,670.40
2023-04-21T04:05:34.261Z,668.58
2023-04-21T04:06:34.246Z,669.73
2023-04-21T04:07:34.175Z,667.05
2023-04-21T04:08:34.162Z,667.09
2023-04-21T04:09:34.158Z,666.88
2023-04-21T04:10:34.143Z,668.31
2023-04-21T04:11:34.146Z,667.59
2023-04-21T04:12:34.142Z,663.07
2023-04-21T04:13:34.112Z,663.16
2023-04-21T04:14:34.109Z,664.26
2023-04-21T04:15:34.091Z,665.38
2023-04-21T04:16:34.118Z,666.47
2023-04-21T04:17:34.096Z,664.67
2023-04-21T04:18:34.080Z,664.05
2023-04-21T04:19:34.050Z,662.84
2023-04-21T04:20:34.055Z,661.53
2023-04-21T04:21:34.036Z,658.62
2023-04-21T04:22:34.024Z,659.37
2023-04-21T04:23:34.006Z,659.24
2023-04-21T04:24:33.989Z,657.79
2023-04-21T04:25:33.981Z,656.06
2023-04-21T04:26:34.031Z,652.80
2023-04-21T04:27:33.958Z,649.21
2023-04-21T04:28:33.964Z,648.84
2023-04-21T04:29:33.944Z,646.41
2023-04-21T04:30:33.936Z,644.12
2023-04-21T04:31:33.974Z,644.04
2023-04-21T04:32:33.935Z,643.85
2023-04-21T04:33:33.893Z,643.52
2023-04-21T04:34:33.896Z,643.83
2023-04-21T04:35:33.879Z,645.39
2023-04-21T04:36:33.871Z,645.86
2023-04-21T04:37:33.852Z,643.72
2023-04-21T04:38:34.643Z,643.81
2023-04-21T04:39:33.846Z,644.48
2023-04-21T04:40:33.820Z,644.40
2023-04-21T04:41:33.827Z,644.07
2023-04-21T04:42:33.801Z,644.39
2023-04-21T04:43:33.797Z,643.47
2023-04-21T04:44:41.299Z,644.58
2023-04-21T04:45:33.758Z,647.05
2023-04-21T04:46:33.810Z,646.43
2023-04-21T04:47:33.822Z,647.26
2023-04-21T04:48:33.724Z,645.53
2023-04-21T04:49:33.722Z,643.76
2023-04-21T04:50:33.759Z,643.86
2023-04-21T04:51:33.810Z,647.10
2023-04-21T04:52:33.676Z,646.76
2023-04-21T04:53:33.680Z,646.51
2023-04-21T04:54:33.664Z,647.50
2023-04-21T04:55:33.647Z,648.22
2023-04-21T04:56:33.633Z,648.22
2023-04-21T04:57:33.621Z,648.94
2023-04-21T04:58:33.637Z,652.57
2023-04-21T04:59:33.601Z,651.54
2023-04-21T05:00:33.597Z,650.68
2023-04-21T05:01:33.650Z,648.15
2023-04-21T05:02:33.764Z,648.41
2023-04-21T05:03:33.806Z,649.12
2023-04-21T05:04:33.669Z,648.50
2023-04-21T05:05:33.562Z,648.09
2023-04-21T05:06:33.542Z,646.73
2023-04-21T05:07:33.520Z,648.22
2023-04-21T05:08:33.500Z,648.18
2023-04-21T05:09:33.511Z,647.75
2023-04-21T05:10:33.483Z,648.30
2023-04-21T05:11:33.473Z,649.74
2023-04-21T05:12:33.475Z,649.30
2023-04-21T05:13:33.464Z,651.10
2023-04-21T05:14:33.442Z,651.44
2023-04-21T05:15:33.447Z,652.14
2023-04-21T05:16:33.435Z,651.45
2023-04-21T05:17:33.447Z,651.37
2023-04-21T05:18:33.416Z,651.79
2023-04-21T05:19:33.388Z,653.83
2023-04-21T05:20:33.391Z,654.22
2023-04-21T05:21:33.386Z,654.07
2023-04-21T05:22:33.528Z,655.26
2023-04-21T05:23:33.349Z,660.31
2023-04-21T05:24:33.331Z,660.62
2023-04-21T05:25:33.334Z,660.59
2023-04-21T05:26:33.309Z,660.35
2023-04-21T05:27:33.298Z,657.33
2023-04-21T05:28:33.369Z,656.85
2023-04-21T05:29:33.277Z,654.07
2023-04-21T05:30:33.280Z,651.47
2023-04-21T05:31:33.283Z,649.11
2023-04-21T05:32:33.426Z,651.87
2023-04-21T05:33:33.235Z,652.36
2023-04-21T05:34:33.220Z,652.68
2023-04-21T05:35:33.646Z,654.02
2023-04-21T05:36:33.210Z,655.43
2023-04-21T05:37:33.197Z,654.44
2023-04-21T05:38:33.330Z,656.95
2023-04-21T05:39:33.181Z,657.52
2023-04-21T05:40:33.154Z,656.54
2023-04-21T05:41:33.149Z,657.42
2023-04-21T05:42:33.135Z,658.73
2023-04-21T05:43:33.133Z,658.74
2023-04-21T05:44:33.147Z,659.56
2023-04-21T05:45:33.098Z,659.28
2023-04-21T05:46:33.130Z,659.44
2023-04-21T05:47:33.114Z,658.18
2023-04-21T05:48:33.104Z,661.57
2023-04-21T05:49:33.100Z,662.06
2023-04-21T05:50:33.054Z,664.46
2023-04-21T05:51:33.044Z,663.43
2023-04-21T05:52:33.041Z,662.85
2023-04-21T05:53:33.013Z,665.01
2023-04-21T05:54:33.030Z,665.82
2023-04-21T05:55:33.044Z,665.97
2023-04-21T05:56:33.006Z,668.86
2023-04-21T05:57:33.006Z,668.92
2023-04-21T05:58:32.972Z,669.82
2023-04-21T05:59:32.998Z,668.61
2023-04-21T06:00:32.955Z,670.71
2023-04-21T06:01:32.930Z,674.82
2023-04-21T06:02:33.101Z,673.97
2023-04-21T06:03:33.044Z,675.98
2023-04-21T06:04:33.048Z,677.91
2023-04-21T06:05:33.005Z,674.07
2023-04-21T06:06:32.913Z,673.75
2023-04-21T06:07:32.909Z,675.76
2023-04-21T06:08:32.905Z,676.61
2023-04-21T06:09:32.865Z,679.59
2023-04-21T06:10:32.868Z,679.32
2023-04-21T06:11:32.818Z,682.16
2023-04-21T06:12:32.829Z,683.58
2023-04-21T06:13:32.814Z,686.77
2023-04-21T06:14:32.828Z,689.60
2023-04-21T06:15:32.774Z,693.10
2023-04-21T06:16:32.849Z,686.62
2023-04-21T06:17:32.782Z,683.67
2023-04-21T06:18:32.777Z,684.93
2023-04-21T06:19:32.779Z,683.48
2023-04-21T06:20:32.722Z,680.65
2023-04-21T06:21:32.762Z,682.31
2023-04-21T06:22:32.734Z,680.59
2023-04-21T06:23:32.723Z,683.89
2023-04-21T06:24:32.705Z,686.00
2023-04-21T06:25:32.667Z,685.94
2023-04-21T06:26:32.700Z,685.96
2023-04-21T06:27:32.646Z,685.84
2023-04-21T06:28:32.692Z,684.89
2023-04-21T06:29:32.634Z,685.24
2023-04-21T06:30:32.637Z,686.88
2023-04-21T06:31:32.643Z,690.75
2023-04-21T06:32:32.667Z,690.75
2023-04-21T06:33:32.679Z,689.26
2023-04-21T06:34:32.620Z,689.10
2023-04-21T06:35:32.553Z,689.36
2023-04-21T06:36:32.555Z,693.11
2023-04-21T06:37:32.531Z,689.07
2023-04-21T06:38:32.528Z,680.99
2023-04-21T06:39:32.523Z,675.61
2023-04-21T06:40:32.503Z,678.35
2023-04-21T06:41:32.488Z,683.52
2023-04-21T06:42:32.504Z,680.59
2023-04-21T06:43:32.463Z,681.98
2023-04-21T06:44:32.510Z,686.98
2023-04-21T06:45:39.968Z,680.78
2023-04-21T06:46:32.470Z,687.79
2023-04-21T06:47:35.246Z,695.95
2023-04-21T06:48:32.418Z,696.12
2023-04-21T06:49:32.418Z,690.87
2023-04-21T06:50:32.405Z,692.50
2023-04-21T06:51:32.407Z,687.23
2023-04-21T06:52:32.375Z,684.49
2023-04-21T06:53:32.349Z,681.78
2023-04-21T06:54:32.401Z,681.87
2023-04-21T06:55:32.388Z,684.79
2023-04-21T06:56:32.374Z,677.57
2023-04-21T06:57:32.321Z,676.64
2023-04-21T06:58:32.311Z,678.05
2023-04-21T06:59:32.304Z,682.73
2023-04-21T07:00:32.298Z,671.18
2023-04-21T07:01:32.349Z,670.33
2023-04-21T07:02:32.411Z,675.81
2023-04-21T07:03:32.346Z,681.64
2023-04-21T07:04:32.516Z,682.04
2023-04-21T07:05:32.259Z,684.31
2023-04-21T07:06:32.246Z,681.53
2023-04-21T07:07:32.220Z,682.97
2023-04-21T07:08:32.220Z,684.96
2023-04-21T07:09:32.187Z,684.32
2023-04-21T07:10:32.217Z,679.50
2023-04-21T07:11:32.180Z,676.07
2023-04-21T07:12:32.219Z,677.72
2023-04-21T07:13:32.177Z,679.59
2023-04-21T07:14:32.147Z,682.37
2023-04-21T07:15:32.114Z,679.21
2023-04-21T07:16:32.158Z,678.22
2023-04-21T07:17:32.114Z,675.82
2023-04-21T07:18:32.096Z,673.15
2023-04-21T07:19:32.093Z,677.51
2023-04-21T07:20:32.098Z,680.07
2023-04-21T07:21:32.069Z,678.15
2023-04-21T07:22:32.061Z,677.62
2023-04-21T07:23:32.034Z,678.99
2023-04-21T07:24:32.022Z,675.04
2023-04-21T07:25:32.017Z,669.34
2023-04-21T07:26:32.030Z,669.55
2023-04-21T07:27:31.982Z,672.73
2023-04-21T07:28:32.009Z,671.02
2023-04-21T07:29:31.990Z,673.47
2023-04-21T07:30:31.988Z,677.67
2023-04-21T07:31:32.031Z,682.53
2023-04-21T07:32:31.980Z,684.28
2023-04-21T07:33:31.918Z,680.87
2023-04-21T07:34:31.907Z,686.60
2023-04-21T07:35:31.903Z,682.52
2023-04-21T07:36:32.416Z,678.11
2023-04-21T07:37:31.878Z,676.50
2023-04-21T07:38:31.894Z,679.99
2023-04-21T07:39:31.861Z,682.70
2023-04-21T07:40:31.861Z,684.82
2023-04-21T07:41:31.847Z,683.37
2023-04-21T07:42:31.824Z,684.62
2023-04-21T07:43:31.838Z,679.27
2023-04-21T07:44:31.829Z,686.56
2023-04-21T07:45:31.811Z,686.36
2023-04-21T07:46:31.929Z,685.24
2023-04-21T07:47:31.810Z,688.68
2023-04-21T07:48:31.766Z,690.00
2023-04-21T07:49:31.740Z,691.18
2023-04-21T07:50:31.835Z,689.58
2023-04-21T07:51:31.734Z,687.11
2023-04-21T07:52:31.712Z,689.63
2023-04-21T07:53:31.705Z,686.34
2023-04-21T07:54:32.016Z,685.82
2023-04-21T07:55:31.694Z,683.00
2023-04-21T07:56:31.695Z,684.41
2023-04-21T07:57:31.652Z,682.30
2023-04-21T07:58:31.646Z,681.52
2023-04-21T07:59:31.651Z,679.28
2023-04-21T08:00:31.632Z,679.30
2023-04-21T08:01:31.688Z,679.16
2023-04-21T08:02:31.695Z,679.40
2023-04-21T08:03:31.757Z,684.85
2023-04-21T08:04:31.755Z,680.65
2023-04-21T08:05:34.122Z,682.14
2023-04-21T08:06:31.896Z,686.15
2023-04-21T08:07:31.775Z,693.15
2023-04-21T08:08:32.126Z,688.05
2023-04-21T08:09:31.534Z,690.30
2023-04-21T08:10:31.534Z,687.94
2023-04-21T08:11:31.512Z,683.46
2023-04-21T08:12:31.539Z,688.84
2023-04-21T08:13:31.548Z,687.83
2023-04-21T08:14:31.477Z,690.91
2023-04-21T08:15:31.470Z,695.73
2023-04-21T08:16:31.507Z,694.90
2023-04-21T08:17:31.480Z,695.43
2023-04-21T08:18:31.476Z,694.46
2023-04-21T08:19:31.453Z,692.48
2023-04-21T08:20:31.410Z,696.08
2023-04-21T08:21:31.599Z,698.12
2023-04-21T08:22:31.468Z,696.58
2023-04-21T08:23:32.395Z,691.56
2023-04-21T08:24:31.485Z,690.50
2023-04-21T08:25:31.474Z,689.84
2023-04-21T08:26:31.366Z,686.23
2023-04-21T08:27:31.339Z,693.82
2023-04-21T08:28:31.317Z,687.26
2023-04-21T08:29:31.328Z,688.18
2023-04-21T08:30:31.316Z,688.08
2023-04-21T08:31:31.403Z,693.62
2023-04-21T08:32:31.296Z,694.72
2023-04-21T08:33:31.285Z,691.97
2023-04-21T08:34:31.487Z,688.76
2023-04-21T08:35:31.291Z,688.58
2023-04-21T08:36:31.262Z,686.24
2023-04-21T08:37:31.258Z,704.60
2023-04-21T08:38:31.216Z,702.19
2023-04-21T08:39:31.213Z,701.63
2023-04-21T08:40:31.188Z,702.07
2023-04-21T08:41:31.186Z,696.84
2023-04-21T08:42:31.164Z,694.31
2023-04-21T08:43:31.191Z,692.62
2023-04-21T08:44:31.153Z,693.88
2023-04-21T08:45:31.170Z,696.11
2023-04-21T08:46:39.296Z,690.54
2023-04-21T08:47:31.141Z,693.06
2023-04-21T08:48:31.114Z,693.18
2023-04-21T08:49:31.119Z,693.14
2023-04-21T08:50:31.098Z,693.65
2023-04-21T08:51:31.102Z,698.35
2023-04-21T08:52:32.061Z,701.30
2023-04-21T08:53:31.057Z,703.66
2023-04-21T08:54:31.061Z,702.23
2023-04-21T08:55:31.041Z,702.56
2023-04-21T08:56:31.090Z,698.07
2023-04-21T08:57:31.004Z,700.83
2023-04-21T08:58:31.009Z,697.55
2023-04-21T08:59:31.086Z,695.69
2023-04-21T09:00:31.162Z,700.90
2023-04-21T09:01:31.073Z,697.38
2023-04-21T09:02:31.223Z,699.92
2023-04-21T09:03:31.160Z,702.55
2023-04-21T09:04:31.189Z,702.77
2023-04-21T09:05:31.106Z,702.64
2023-04-21T09:06:31.102Z,702.44
2023-04-21T09:07:30.896Z,701.28
2023-04-21T09:08:30.889Z,700.06
2023-04-21T09:09:30.890Z,699.03
2023-04-21T09:10:30.900Z,701.49
2023-04-21T09:11:30.853Z,700.00
2023-04-21T09:12:30.833Z,699.15
2023-04-21T09:13:30.879Z,696.26
2023-04-21T09:14:30.814Z,698.30
2023-04-21T09:15:30.815Z,700.77
2023-04-21T09:16:30.875Z,699.53
2023-04-21T09:17:30.853Z,696.10
2023-04-21T09:18:30.780Z,699.34
2023-04-21T09:19:30.752Z,700.72
2023-04-21T09:20:30.758Z,700.93
2023-04-21T09:21:32.229Z,697.30
2023-04-21T09:22:30.759Z,697.34
2023-04-21T09:23:30.752Z,693.10
2023-04-21T09:24:30.708Z,698.89
2023-04-21T09:25:30.705Z,697.58
2023-04-21T09:26:30.820Z,693.66
2023-04-21T09:27:30.704Z,692.24
2023-04-21T09:28:30.661Z,701.71
2023-04-21T09:29:30.646Z,698.87
2023-04-21T09:30:30.637Z,697.76
2023-04-21T09:31:30.674Z,695.98
2023-04-21T09:32:30.657Z,694.51
2023-04-21T09:33:36.485Z,695.78
2023-04-21T09:34:30.638Z,700.81
2023-04-21T09:35:30.592Z,696.39
2023-04-21T09:36:31.131Z,704.15
2023-04-21T09:37:30.565Z,698.06
2023-04-21T09:38:30.945Z,702.63
2023-04-21T09:39:43.106Z,701.76
2023-04-21T09:40:31.549Z,701.41
2023-04-21T09:41:30.514Z,701.25
2023-04-21T09:42:30.506Z,700.17
2023-04-21T09:43:30.502Z,698.10
2023-04-21T09:44:33.910Z,706.28
2023-04-21T09:45:39.750Z,704.93
2023-04-21T09:46:30.539Z,703.49
2023-04-21T09:47:30.516Z,698.24
2023-04-21T09:48:30.441Z,700.38
2023-04-21T09:49:30.469Z,701.29
2023-04-21T09:51:48.559Z,694.51
2023-04-21T09:52:30.428Z,694.11
2023-04-21T09:53:31.129Z,691.45
2023-04-21T09:54:30.685Z,687.02
2023-04-21T09:55:30.370Z,692.72
2023-04-21T09:56:30.357Z,696.92
2023-04-21T09:57:30.353Z,704.40
2023-04-21T09:58:30.339Z,706.57
2023-04-21T09:59:30.374Z,703.61
2023-04-21T10:00:30.328Z,704.11
2023-04-21T10:01:30.337Z,703.62
2023-04-21T10:02:30.471Z,699.09
2023-04-21T10:03:30.426Z,702.02
2023-04-21T10:04:30.918Z,699.43
2023-04-21T10:05:30.292Z,696.91
2023-04-21T10:06:30.255Z,693.38
2023-04-21T10:07:30.238Z,699.59
2023-04-21T10:08:30.221Z,699.68
2023-04-21T10:09:30.220Z,697.00
2023-04-21T10:10:30.310Z,698.84
2023-04-21T10:11:30.195Z,699.15
2023-04-21T10:12:30.256Z,694.56
2023-04-21T10:13:31.174Z,690.83
2023-04-21T10:14:30.159Z,689.89
2023-04-21T10:15:30.190Z,692.06
2023-04-21T10:16:30.763Z,685.18
2023-04-21T10:17:30.179Z,686.21
2023-04-21T10:18:30.126Z,687.32
2023-04-21T10:19:30.429Z,691.74
2023-04-21T10:20:30.103Z,693.27
2023-04-21T10:21:30.095Z,687.65
2023-04-21T10:22:30.069Z,691.09
2023-04-21T10:23:30.060Z,701.57
2023-04-21T10:24:30.061Z,692.77
2023-04-21T10:25:30.047Z,684.74
2023-04-21T10:26:30.041Z,680.02
2023-04-21T10:27:30.030Z,680.88
2023-04-21T10:28:30.010Z,678.56
2023-04-21T10:29:34.785Z,685.33
2023-04-21T10:30:29.997Z,690.48
2023-04-21T10:31:30.144Z,693.09
2023-04-21T10:32:30.101Z,686.50
2023-04-21T10:33:29.968Z,688.49
2023-04-21T10:34:29.945Z,702.01
2023-04-21T10:35:29.978Z,697.14
2023-04-21T10:36:29.931Z,691.29
2023-04-21T10:37:29.917Z,691.62
2023-04-21T10:38:29.898Z,689.22
2023-04-21T10:39:29.908Z,689.71
2023-04-21T10:40:42.608Z,693.60
2023-04-21T10:41:30.931Z,693.95
2023-04-21T10:42:29.944Z,698.81
2023-04-21T10:43:29.859Z,700.87
2023-04-21T10:44:29.875Z,701.05
2023-04-21T10:45:29.848Z,695.95
2023-04-21T10:46:29.900Z,694.29
2023-04-21T10:47:37.447Z,697.27
2023-04-21T10:48:29.782Z,695.16
2023-04-21T10:49:29.775Z,692.15
2023-04-21T10:50:29.760Z,687.18
2023-04-21T10:51:30.313Z,688.57
2023-04-21T10:52:29.744Z,693.54
2023-04-21T10:53:29.734Z,700.31
2023-04-21T10:54:29.719Z,697.29
2023-04-21T10:55:29.738Z,695.38
2023-04-21T10:56:29.711Z,694.17
2023-04-21T10:57:29.734Z,692.16
2023-04-21T10:58:29.696Z,691.32
2023-04-21T10:59:29.669Z,693.35
2023-04-21T11:00:29.683Z,695.11
2023-04-21T11:01:29.685Z,699.56
2023-04-21T11:02:29.832Z,697.40
2023-04-21T11:03:29.847Z,704.19
2023-04-21T11:04:30.236Z,702.67
2023-04-21T11:05:29.636Z,699.42
2023-04-21T11:06:29.586Z,693.65
2023-04-21T11:07:29.583Z,697.81
2023-04-21T11:08:29.612Z,700.02
2023-04-21T11:09:29.589Z,695.70
2023-04-21T11:10:29.654Z,696.67
2023-04-21T11:11:29.585Z,696.44
2023-04-21T11:12:29.545Z,691.61
2023-04-21T11:13:29.581Z,690.26
2023-04-21T11:14:29.534Z,691.53
2023-04-21T11:15:29.523Z,691.11
2023-04-21T11:16:29.544Z,687.86
2023-04-21T11:17:29.516Z,687.94
2023-04-21T11:18:29.448Z,687.14
2023-04-21T11:19:29.462Z,688.72
2023-04-21T11:20:29.442Z,688.60
2023-04-21T11:21:29.420Z,699.17
2023-04-21T11:22:29.409Z,700.86
2023-04-21T11:23:29.398Z,699.09
2023-04-21T11:24:29.398Z,702.96
2023-04-21T11:25:29.375Z,703.73
2023-04-21T11:26:29.360Z,702.01
2023-04-21T11:27:29.364Z,699.90
2023-04-21T11:28:29.349Z,704.53
2023-04-21T11:29:29.347Z,702.42
2023-04-21T11:30:29.366Z,690.19
2023-04-21T11:31:29.430Z,688.77
2023-04-21T11:32:29.395Z,687.86
2023-04-21T11:33:29.319Z,685.82
2023-04-21T11:34:29.277Z,687.38
2023-04-21T11:35:29.269Z,687.35
2023-04-21T11:36:29.256Z,682.87
2023-04-21T11:37:29.264Z,680.38
2023-04-21T11:38:29.232Z,687.39
2023-04-21T11:39:29.241Z,686.09
2023-04-21T11:40:29.219Z,684.66
2023-04-21T11:41:29.204Z,695.04
2023-04-21T11:42:29.298Z,691.38
2023-04-21T11:43:29.181Z,687.22
2023-04-21T11:44:29.166Z,689.68
2023-04-21T11:45:29.250Z,694.07
2023-04-21T11:46:29.217Z,695.90
2023-04-21T11:47:29.231Z,697.23
2023-04-21T11:48:29.143Z,698.29
2023-04-21T11:49:29.118Z,693.99
2023-04-21T11:50:29.108Z,692.84
2023-04-21T11:51:29.120Z,690.06
2023-04-21T11:52:29.118Z,685.06
2023-04-21T11:53:29.074Z,691.90
2023-04-21T11:54:29.060Z,691.23
2023-04-21T11:55:29.065Z,689.68
2023-04-21T11:56:29.058Z,689.84
2023-04-21T11:57:29.029Z,687.93
2023-04-21T11:58:29.028Z,688.37
2023-04-21T11:59:29.027Z,686.13
2023-04-21T12:00:29.004Z,682.95
2023-04-21T12:01:28.988Z,681.87
2023-04-21T12:02:29.159Z,682.40
2023-04-21T12:03:29.131Z,680.37
2023-04-21T12:04:31.523Z,688.79
2023-04-21T12:05:28.959Z,692.45
2023-04-21T12:06:28.933Z,686.89
2023-04-21T12:07:28.922Z,689.52
2023-04-21T12:08:28.926Z,693.82
2023-04-21T12:09:28.903Z,702.49
2023-04-21T12:10:28.891Z,705.15
2023-04-21T12:11:28.885Z,704.80
2023-04-21T12:12:28.873Z,704.47
2023-04-21T12:13:28.868Z,698.06
2023-04-21T12:14:28.855Z,695.21
2023-04-21T12:15:28.865Z,697.25
2023-04-21T12:16:28.866Z,705.13
2023-04-21T12:17:28.838Z,705.79
2023-04-21T12:18:28.832Z,705.04
2023-04-21T12:19:28.791Z,707.54
2023-04-21T12:20:28.939Z,706.16
2023-04-21T12:21:28.765Z,702.48
2023-04-21T12:22:28.763Z,704.71
2023-04-21T12:23:28.753Z,698.35
2023-04-21T12:24:28.736Z,700.02
2023-04-21T12:25:28.735Z,701.59
2023-04-21T12:26:28.724Z,707.11
2023-04-21T12:27:28.708Z,705.29
2023-04-21T12:28:28.688Z,703.89
2023-04-21T12:29:28.690Z,701.30